Time;durP1;ratioP1;P1;durP2;ratioP2;P2;SDS_P1;SDS_P2;PMS_P1;PMS_P2;Temp;Humidity;BMP_temperature;BMP_pressure;BME280_temperature;BME280_humidity;BME280_pressure;Samples;Min_cycle;Max_cycle;Signal;HPM_P1;HPM_P2
2021/11/24 00:00:11;;;;;;;70.68;37.97;;;10.00;83.10;;;;;;5084301;28;20306;-81
2021/11/24 00:02:36;;;;;;;69.28;37.55;;;10.00;83.10;;;;;;5110614;28;20182;-82
2021/11/24 00:05:02;;;;;;;66.07;36.63;;;10.00;83.30;;;;;;5094462;28;20203;-81
2021/11/24 00:07:28;;;;;;;72.43;36.88;;;10.00;83.20;;;;;;5114855;28;20712;-81
2021/11/24 00:09:54;;;;;;;74.37;40.07;;;10.00;83.10;;;;;;5103811;28;20192;-82
2021/11/24 00:12:20;;;;;;;63.40;35.77;;;9.80;83.30;;;;;;5088045;28;20433;-82
2021/11/24 00:14:46;;;;;;;83.83;36.97;;;9.80;83.50;;;;;;5087156;28;20461;-82
2021/11/24 00:17:12;;;;;;;76.32;37.40;;;9.80;83.80;;;;;;5104489;28;20201;-81
2021/11/24 00:19:39;;;;;;;81.65;38.03;;;10.00;83.90;;;;;;5090769;28;20207;-81
2021/11/24 00:22:04;;;;;;;76.47;38.37;;;9.80;83.50;;;;;;5083865;28;20171;-82
2021/11/24 00:24:30;;;;;;;89.40;40.43;;;9.60;84.00;;;;;;5088023;28;20195;-81
2021/11/24 00:26:56;;;;;;;98.50;40.57;;;9.90;84.60;;;;;;5088234;28;20175;-82
2021/11/24 00:29:22;;;;;;;79.23;37.70;;;9.80;84.60;;;;;;5088623;28;20185;-82
2021/11/24 00:31:47;;;;;;;83.63;35.37;;;9.60;84.70;;;;;;5093489;28;20430;-81
2021/11/24 00:34:13;;;;;;;105.83;39.67;;;9.60;85.00;;;;;;5096988;28;20201;-81
2021/11/24 00:36:39;;;;;;;93.30;40.87;;;9.80;85.20;;;;;;5087366;28;20421;-82
2021/11/24 00:39:04;;;;;;;94.50;40.10;;;10.00;85.00;;;;;;5087554;28;20203;-82
2021/11/24 00:41:31;;;;;;;89.77;40.13;;;10.10;84.70;;;;;;5087031;28;20187;-82
2021/11/24 00:43:57;;;;;;;105.72;40.72;;;10.00;84.50;;;;;;5077935;28;20205;-82
2021/11/24 00:46:23;;;;;;;84.57;38.20;;;9.80;84.60;;;;;;5098310;28;20175;-81
2021/11/24 00:48:48;;;;;;;106.93;41.03;;;9.80;84.70;;;;;;5111999;28;20626;-82
2021/11/24 00:51:14;;;;;;;100.57;42.67;;;10.00;84.90;;;;;;5094088;28;20444;-81
2021/11/24 00:53:40;;;;;;;115.57;40.27;;;10.20;84.50;;;;;;5091466;28;20244;-81
2021/11/24 00:56:05;;;;;;;100.57;41.30;;;10.20;84.30;;;;;;5091911;28;20569;-82
2021/11/24 00:58:31;;;;;;;112.50;42.40;;;10.30;84.20;;;;;;5088968;28;20324;-81
2021/11/24 01:00:57;;;;;;;102.07;41.37;;;10.30;84.00;;;;;;5085818;28;20302;-81
2021/11/24 01:03:23;;;;;;;116.13;40.77;;;10.30;83.80;;;;;;5086428;28;20868;-82
2021/11/24 01:05:49;;;;;;;130.73;46.17;;;10.30;83.80;;;;;;5105753;28;20171;-83
2021/11/24 01:08:16;;;;;;;108.22;40.35;;;10.30;83.90;;;;;;5105170;28;20179;-83
2021/11/24 01:10:43;;;;;;;125.60;43.63;;;10.20;84.00;;;;;;5095165;28;20238;-82
2021/11/24 01:13:10;;;;;;;119.38;43.58;;;10.10;84.10;;;;;;5091565;28;20637;-82
2021/11/24 01:15:36;;;;;;;118.47;46.35;;;10.10;84.50;;;;;;5089246;28;20207;-82
2021/11/24 01:18:02;;;;;;;135.85;46.30;;;10.20;84.50;;;;;;5086690;28;20171;-82
2021/11/24 01:20:28;;;;;;;122.63;42.80;;;10.20;84.70;;;;;;5086211;28;20211;-82
2021/11/24 01:22:54;;;;;;;133.70;48.45;;;10.10;84.80;;;;;;5086979;28;20424;-82
2021/11/24 01:25:20;;;;;;;125.43;46.73;;;10.00;84.90;;;;;;5086433;28;20200;-82
2021/11/24 01:27:45;;;;;;;138.87;44.00;;;9.80;85.10;;;;;;5086854;28;20446;-83
2021/11/24 01:30:12;;;;;;;144.97;49.37;;;9.80;86.20;;;;;;5090465;28;20541;-82
2021/11/24 01:32:38;;;;;;;139.07;47.28;;;9.90;85.80;;;;;;5108837;28;20182;-83
2021/11/24 01:35:08;;;;;;;155.30;48.58;;;10.10;85.90;;;;;;5089156;28;20203;-82
2021/11/24 01:37:34;;;;;;;152.23;46.88;;;10.10;85.50;;;;;;5085651;28;20187;-83
2021/11/24 01:40:01;;;;;;;135.90;45.90;;;10.20;85.40;;;;;;5091151;28;20207;-82
2021/11/24 01:42:28;;;;;;;133.35;46.70;;;10.20;85.10;;;;;;5094549;28;20175;-82
2021/11/24 01:44:54;;;;;;;141.07;47.58;;;10.30;84.90;;;;;;5093227;28;20209;-82
2021/11/24 01:47:20;;;;;;;135.63;46.30;;;10.30;84.90;;;;;;5091001;28;20526;-82
2021/11/24 01:49:48;;;;;;;143.70;49.00;;;10.30;84.80;;;;;;5090863;28;20194;-83
2021/11/24 01:52:14;;;;;;;132.43;45.70;;;10.20;84.60;;;;;;5091247;28;20444;-83
2021/11/24 01:54:40;;;;;;;132.27;47.13;;;10.10;84.80;;;;;;5108207;28;20257;-82
2021/11/24 01:57:06;;;;;;;134.60;45.85;;;10.10;85.20;;;;;;5109760;28;20261;-83
2021/11/24 01:59:33;;;;;;;126.32;44.88;;;10.10;85.30;;;;;;5074853;28;20199;-82
2021/11/24 02:01:59;;;;;;;126.68;45.65;;;10.20;85.20;;;;;;5090202;28;20235;-82
2021/11/24 02:04:25;;;;;;;147.10;42.97;;;10.20;85.00;;;;;;5085866;28;20203;-82
2021/11/24 02:06:51;;;;;;;140.03;49.33;;;10.10;85.00;;;;;;5108571;28;20852;-82
2021/11/24 02:09:20;;;;;;;142.38;50.90;;;10.20;85.10;;;;;;5094484;28;20421;-82
2021/11/24 02:11:46;;;;;;;137.70;47.60;;;10.20;84.90;;;;;;5096422;28;20187;-82
2021/11/24 02:14:14;;;;;;;136.40;47.33;;;10.20;84.80;;;;;;5122654;28;20270;-82
2021/11/24 02:16:45;;;;;;;139.82;48.42;;;10.00;84.80;;;;;;5104160;28;20186;-82
2021/11/24 02:19:11;;;;;;;157.90;49.08;;;9.80;85.20;;;;;;5101637;28;20203;-82
2021/11/24 02:21:37;;;;;;;153.45;53.85;;;9.80;85.70;;;;;;5097802;28;20175;-83
2021/11/24 02:24:04;;;;;;;143.55;49.35;;;9.80;85.50;;;;;;5090610;28;20661;-82
2021/11/24 02:26:30;;;;;;;142.50;46.85;;;9.90;85.60;;;;;;5088546;28;20177;-82
2021/11/24 02:28:56;;;;;;;155.80;55.25;;;9.90;85.50;;;;;;5110251;28;20194;-82
2021/11/24 02:31:23;;;;;;;156.17;49.23;;;9.90;85.70;;;;;;5093563;28;20248;-82
2021/11/24 02:33:51;;;;;;;153.13;50.92;;;9.90;85.70;;;;;;5114077;28;20266;-83
2021/11/24 02:36:17;;;;;;;163.23;48.05;;;9.70;85.60;;;;;;5093776;28;20183;-82
2021/11/24 02:38:44;;;;;;;151.63;50.78;;;9.60;86.00;;;;;;5074247;28;20183;-83
2021/11/24 02:41:10;;;;;;;136.57;51.33;;;9.70;86.20;;;;;;5104931;28;20183;-82
2021/11/24 02:43:36;;;;;;;151.83;48.83;;;9.40;86.30;;;;;;5093651;28;20260;-82
2021/11/24 02:46:01;;;;;;;168.40;51.50;;;9.60;86.90;;;;;;5092211;28;20528;-82
2021/11/24 02:48:27;;;;;;;162.07;52.10;;;9.60;87.00;;;;;;5105513;28;20274;-83
2021/11/24 02:50:56;;;;;;;120.63;43.37;;;9.50;87.10;;;;;;5086636;28;20187;-82
2021/11/24 02:53:30;;;;;;;146.48;50.85;;;9.70;87.20;;;;;;5106811;28;20184;-83
2021/11/24 02:55:57;;;;;;;150.93;51.42;;;9.60;87.10;;;;;;5118044;28;20198;-82
2021/11/24 02:58:24;;;;;;;147.55;48.47;;;9.80;86.90;;;;;;5104937;28;20191;-82
2021/11/24 03:00:51;;;;;;;148.13;47.50;;;9.60;86.80;;;;;;5117552;28;20215;-83
2021/11/24 03:03:16;;;;;;;155.15;48.50;;;9.50;86.90;;;;;;5079402;28;20187;-82
2021/11/24 03:05:42;;;;;;;130.50;43.83;;;9.50;87.10;;;;;;5090823;28;20184;-82
2021/11/24 03:08:08;;;;;;;167.40;49.40;;;9.70;87.00;;;;;;5089124;28;20243;-82
2021/11/24 03:10:34;;;;;;;156.47;48.60;;;9.60;86.70;;;;;;5089693;28;20422;-82
2021/11/24 03:13:01;;;;;;;121.53;44.63;;;9.50;86.80;;;;;;5074899;28;20186;-83
2021/11/24 03:15:28;;;;;;;133.30;45.72;;;9.60;87.00;;;;;;5074991;28;20309;-83
2021/11/24 03:17:53;;;;;;;140.05;47.72;;;9.60;87.00;;;;;;5089952;28;20230;-82
2021/11/24 03:20:20;;;;;;;145.53;46.43;;;9.70;87.10;;;;;;5086444;28;20200;-82
2021/11/24 03:22:46;;;;;;;131.15;44.13;;;9.70;86.90;;;;;;5088899;28;20475;-82
2021/11/24 03:25:13;;;;;;;117.85;41.63;;;9.80;86.50;;;;;;5091592;28;20286;-82
2021/11/24 03:27:41;;;;;;;120.75;44.08;;;9.70;86.30;;;;;;5092491;28;20179;-82
2021/11/24 03:30:10;;;;;;;99.13;41.05;;;9.70;86.50;;;;;;5109993;28;20183;-82
2021/11/24 03:32:36;;;;;;;96.53;36.88;;;9.70;86.50;;;;;;5093545;28;20191;-82
2021/11/24 03:35:03;;;;;;;97.50;36.57;;;9.80;86.10;;;;;;5089645;28;20204;-83
2021/11/24 03:37:28;;;;;;;98.03;37.03;;;9.80;85.90;;;;;;5087207;28;20183;-82
2021/11/24 03:39:54;;;;;;;101.27;40.30;;;9.90;85.70;;;;;;5080484;28;20215;-82
2021/11/24 03:42:20;;;;;;;94.10;36.87;;;9.80;85.40;;;;;;5099443;28;20174;-82
2021/11/24 03:44:46;;;;;;;89.57;39.35;;;9.70;85.50;;;;;;5084892;28;20222;-82
2021/11/24 03:47:12;;;;;;;100.50;39.38;;;9.40;85.70;;;;;;5089944;28;20211;-82
2021/11/24 03:49:38;;;;;;;100.30;38.00;;;9.20;86.20;;;;;;5099749;28;20641;-82
2021/11/24 03:52:05;;;;;;;109.22;39.78;;;9.20;86.60;;;;;;5075222;28;20532;-82
2021/11/24 03:54:31;;;;;;;114.05;39.15;;;9.30;86.80;;;;;;5098281;28;20200;-82
2021/11/24 03:56:57;;;;;;;89.00;35.90;;;9.30;86.80;;;;;;5088312;28;20194;-82
2021/11/24 03:59:22;;;;;;;111.47;39.70;;;9.30;86.80;;;;;;5089936;28;20464;-82
2021/11/24 04:01:48;;;;;;;108.37;40.80;;;9.30;86.80;;;;;;5112814;28;20433;-82
2021/11/24 04:04:14;;;;;;;94.10;38.67;;;9.30;87.00;;;;;;5087402;28;20441;-82
2021/11/24 04:06:40;;;;;;;90.43;37.13;;;9.40;87.00;;;;;;5106701;28;20187;-82
2021/11/24 04:09:06;;;;;;;82.67;33.70;;;9.60;86.60;;;;;;5090930;28;20441;-82
2021/11/24 04:11:31;;;;;;;91.63;37.10;;;9.60;86.20;;;;;;5102307;28;20421;-82
2021/11/24 04:13:58;;;;;;;81.20;33.97;;;9.60;86.10;;;;;;5109310;28;20456;-82
2021/11/24 04:16:24;;;;;;;89.40;33.45;;;9.70;86.20;;;;;;5088859;28;20658;-82
2021/11/24 04:18:50;;;;;;;87.57;32.47;;;9.80;85.20;;;;;;5090433;28;20192;-82
2021/11/24 04:21:16;;;;;;;70.57;34.13;;;9.80;85.00;;;;;;5091000;28;20507;-82
2021/11/24 04:23:42;;;;;;;92.20;37.63;;;9.60;84.90;;;;;;5106794;28;20785;-82
2021/11/24 04:26:08;;;;;;;75.35;35.60;;;9.60;84.90;;;;;;5109110;28;20179;-82
2021/11/24 04:28:34;;;;;;;71.32;34.85;;;9.70;84.80;;;;;;5116481;28;20248;-82
2021/11/24 04:31:05;;;;;;;66.37;31.47;;;9.70;84.60;;;;;;5087865;28;20210;-82
2021/11/24 04:33:30;;;;;;;78.03;33.50;;;9.70;84.50;;;;;;5105070;28;20449;-82
2021/11/24 04:35:56;;;;;;;68.50;33.37;;;9.60;84.40;;;;;;5080174;28;20195;-82
2021/11/24 04:38:22;;;;;;;67.10;31.67;;;9.50;85.10;;;;;;5086722;28;20587;-82
2021/11/24 04:40:48;;;;;;;74.20;31.43;;;9.60;84.60;;;;;;5094327;28;20195;-81
2021/11/24 04:43:15;;;;;;;85.63;34.03;;;9.70;84.70;;;;;;5080958;28;20414;-81
2021/11/24 04:45:41;;;;;;;75.63;31.65;;;9.70;84.60;;;;;;5092802;28;20942;-82
2021/11/24 04:48:07;;;;;;;73.97;35.97;;;9.60;84.40;;;;;;5107608;28;20278;-81
2021/11/24 04:50:33;;;;;;;69.85;34.35;;;9.60;84.20;;;;;;5115256;28;20497;-82
2021/11/24 04:52:59;;;;;;;84.32;34.17;;;9.50;84.20;;;;;;5094459;28;20179;-82
2021/11/24 04:55:25;;;;;;;58.20;29.87;;;9.50;84.40;;;;;;5109632;28;20274;-82
2021/11/24 04:57:51;;;;;;;61.70;28.15;;;9.60;84.50;;;;;;5102943;28;20430;-82
2021/11/24 05:00:20;;;;;;;73.60;31.27;;;9.60;84.50;;;;;;5105375;28;20210;-81
2021/11/24 05:02:46;;;;;;;61.83;29.83;;;9.70;84.20;;;;;;5100556;28;20206;-81
2021/11/24 05:05:12;;;;;;;70.32;33.60;;;9.70;83.90;;;;;;5107744;28;20207;-82
2021/11/24 05:07:38;;;;;;;67.57;30.92;;;9.60;83.70;;;;;;5104282;28;20198;-81
2021/11/24 05:10:05;;;;;;;72.15;31.95;;;9.60;83.70;;;;;;5114906;28;20207;-81
2021/11/24 05:12:32;;;;;;;70.18;33.30;;;9.50;83.70;;;;;;5121488;28;20186;-83
2021/11/24 05:14:59;;;;;;;68.45;32.00;;;9.60;83.80;;;;;;5105956;28;20222;-82
2021/11/24 05:17:26;;;;;;;73.18;32.95;;;9.60;83.70;;;;;;5092589;28;20254;-83
2021/11/24 05:19:53;;;;;;;52.65;28.45;;;9.60;83.80;;;;;;5094221;28;20199;-83
2021/11/24 05:22:20;;;;;;;56.15;28.77;;;9.70;83.70;;;;;;5094138;28;20576;-82
2021/11/24 05:24:45;;;;;;;55.03;29.40;;;9.60;83.50;;;;;;5115865;28;20199;-82
2021/11/24 05:27:11;;;;;;;62.10;30.60;;;9.60;83.20;;;;;;5082807;28;20178;-82
2021/11/24 05:29:37;;;;;;;53.77;28.87;;;9.50;83.10;;;;;;5115136;28;20175;-83
2021/11/24 05:32:03;;;;;;;53.47;27.87;;;9.20;83.10;;;;;;5086709;28;20730;-82
2021/11/24 05:34:30;;;;;;;59.53;30.45;;;9.40;83.60;;;;;;5080158;28;20441;-82
2021/11/24 05:36:56;;;;;;;58.85;29.35;;;9.40;83.70;;;;;;5079952;28;20218;-82
2021/11/24 05:39:21;;;;;;;53.13;27.67;;;9.40;83.80;;;;;;5092658;28;20234;-82
2021/11/24 05:41:48;;;;;;;47.23;27.13;;;9.50;83.80;;;;;;5109512;28;20777;-82
2021/11/24 05:44:25;;;;;;;60.67;28.27;;;9.20;83.70;;;;;;5092038;28;20325;-82
2021/11/24 05:46:57;;;;;;;53.47;29.60;;;9.30;84.10;;;;;;5091674;28;20546;-83
2021/11/24 05:49:28;;;;;;;52.25;29.98;;;9.50;84.20;;;;;;5108572;28;20175;-82
2021/11/24 05:51:56;;;;;;;42.92;26.00;;;9.40;84.00;;;;;;5109834;28;20183;-82
2021/11/24 05:54:22;;;;;;;57.25;28.00;;;9.30;83.90;;;;;;5088193;28;20203;-82
2021/11/24 05:56:48;;;;;;;41.38;26.13;;;9.30;84.10;;;;;;5090976;28;20184;-82
2021/11/24 05:59:16;;;;;;;48.78;27.73;;;9.40;84.60;;;;;;5088951;28;20607;-83
2021/11/24 06:01:43;;;;;;;49.78;28.60;;;9.30;83.90;;;;;;5095547;28;20180;-83
2021/11/24 06:04:09;;;;;;;51.67;26.45;;;9.30;84.10;;;;;;5086880;28;20208;-83
2021/11/24 06:06:36;;;;;;;49.85;28.25;;;9.30;84.40;;;;;;5091194;28;20219;-82
2021/11/24 06:09:04;;;;;;;39.95;25.92;;;9.40;84.20;;;;;;5083673;28;20562;-82
2021/11/24 06:11:30;;;;;;;42.58;26.88;;;9.60;84.00;;;;;;5104736;28;20236;-83
2021/11/24 06:13:56;;;;;;;39.88;26.67;;;9.60;83.70;;;;;;5095437;28;20249;-83
2021/11/24 06:16:22;;;;;;;43.25;26.33;;;9.60;83.30;;;;;;5109833;28;20175;-82
2021/11/24 06:18:49;;;;;;;43.40;26.17;;;9.50;83.30;;;;;;5110739;28;20180;-82
2021/11/24 06:21:18;;;;;;;42.28;26.92;;;9.60;83.10;;;;;;5088143;28;20208;-82
2021/11/24 06:23:44;;;;;;;45.90;27.13;;;9.60;82.80;;;;;;5102246;28;20194;-82
2021/11/24 06:26:10;;;;;;;41.20;26.45;;;9.70;82.80;;;;;;5091734;28;20612;-82
2021/11/24 06:28:36;;;;;;;46.50;27.43;;;9.50;82.80;;;;;;5109173;28;20199;-82
2021/11/24 06:31:03;;;;;;;48.03;27.00;;;9.60;83.00;;;;;;5100871;28;20417;-83
2021/11/24 06:33:29;;;;;;;41.63;26.25;;;9.60;82.80;;;;;;5090410;28;20425;-82
2021/11/24 06:35:55;;;;;;;45.10;27.80;;;9.60;82.50;;;;;;5089592;28;20194;-82
2021/11/24 06:38:22;;;;;;;41.20;26.90;;;9.60;82.30;;;;;;5090800;28;20179;-82
2021/11/24 06:40:49;;;;;;;48.70;27.40;;;9.50;82.50;;;;;;5074118;28;20214;-82
2021/11/24 06:43:15;;;;;;;46.88;26.55;;;9.50;82.50;;;;;;5122860;28;20186;-84
2021/11/24 06:45:42;;;;;;;37.15;25.10;;;9.40;82.80;;;;;;5126206;28;20210;-83
2021/11/24 06:48:09;;;;;;;51.33;31.45;;;9.30;83.10;;;;;;5101540;28;20175;-83
2021/11/24 06:50:35;;;;;;;50.92;26.90;;;9.30;83.30;;;;;;5110205;28;20179;-82
2021/11/24 06:53:01;;;;;;;46.88;28.40;;;9.20;83.20;;;;;;5101292;28;20174;-82
2021/11/24 06:55:26;;;;;;;51.03;27.03;;;9.10;83.30;;;;;;5096070;28;20199;-81
2021/11/24 06:57:52;;;;;;;53.20;27.10;;;9.20;83.60;;;;;;5107387;28;20421;-81
2021/11/24 07:00:18;;;;;;;49.63;24.70;;;9.20;83.50;;;;;;5086050;28;20477;-82
2021/11/24 07:02:44;;;;;;;46.60;26.97;;;9.30;83.50;;;;;;5078702;28;20175;-82
2021/11/24 07:05:11;;;;;;;51.60;28.73;;;9.20;83.40;;;;;;5090347;28;20682;-83
2021/11/24 07:07:37;;;;;;;60.15;28.17;;;9.30;83.50;;;;;;5090738;28;20182;-83
2021/11/24 07:10:04;;;;;;;57.40;28.42;;;9.10;83.40;;;;;;5090317;28;20176;-82
2021/11/24 07:12:30;;;;;;;60.40;29.50;;;9.20;83.60;;;;;;5107723;28;20178;-81
2021/11/24 07:14:56;;;;;;;66.80;30.37;;;9.20;83.50;;;;;;5080757;28;20215;-82
2021/11/24 07:17:23;;;;;;;62.33;29.92;;;9.10;83.60;;;;;;5090246;28;20179;-82
2021/11/24 07:19:49;;;;;;;70.82;32.33;;;9.30;83.60;;;;;;5100053;28;20214;-83
2021/11/24 07:22:15;;;;;;;58.97;31.60;;;9.30;83.40;;;;;;5090448;28;20179;-82
2021/11/24 07:24:41;;;;;;;62.93;29.30;;;9.30;83.40;;;;;;5094537;28;20623;-80
2021/11/24 07:27:07;;;;;;;64.43;30.67;;;9.20;83.20;;;;;;5106360;28;20198;-81
2021/11/24 07:29:33;;;;;;;64.70;30.85;;;9.10;83.60;;;;;;5101908;28;20512;-80
2021/11/24 07:31:59;;;;;;;69.83;32.50;;;9.20;83.80;;;;;;5087466;28;20203;-81
2021/11/24 07:34:24;;;;;;;52.53;28.90;;;9.30;83.50;;;;;;5096516;28;20537;-82
2021/11/24 07:36:50;;;;;;;66.27;31.23;;;9.40;83.20;;;;;;5094150;28;20179;-80
2021/11/24 07:39:16;;;;;;;69.03;31.37;;;9.40;82.90;;;;;;5090608;28;20206;-81
2021/11/24 07:41:42;;;;;;;74.60;33.97;;;9.10;82.70;;;;;;5096474;28;20197;-82
2021/11/24 07:44:08;;;;;;;78.30;32.30;;;9.10;83.20;;;;;;5075850;28;20207;-81
2021/11/24 07:46:34;;;;;;;66.67;31.37;;;8.90;83.40;;;;;;5089281;28;20269;-80
2021/11/24 07:49:01;;;;;;;66.38;30.35;;;8.70;84.00;;;;;;5093649;28;20429;-81
2021/11/24 07:51:27;;;;;;;89.00;34.17;;;8.80;84.50;;;;;;5114177;28;20538;-81
2021/11/24 07:53:53;;;;;;;56.83;32.28;;;8.50;84.80;;;;;;5093178;28;20187;-81
2021/11/24 07:56:20;;;;;;;65.65;33.33;;;8.40;85.50;;;;;;5106384;28;20179;-81
2021/11/24 07:58:46;;;;;;;71.90;32.10;;;8.60;86.00;;;;;;5095494;28;20213;-81
2021/11/24 08:01:13;;;;;;;66.43;29.57;;;8.50;86.00;;;;;;5093248;28;20211;-81
2021/11/24 08:03:40;;;;;;;58.33;30.58;;;8.80;86.10;;;;;;5093757;28;20198;-80
2021/11/24 08:06:07;;;;;;;64.35;30.60;;;8.70;85.80;;;;;;5096672;28;20191;-81
2021/11/24 08:08:32;;;;;;;68.13;30.90;;;8.80;85.70;;;;;;5100930;28;20176;-80
2021/11/24 08:10:59;;;;;;;63.50;30.10;;;9.00;85.50;;;;;;5109440;28;20197;-80
2021/11/24 08:13:25;;;;;;;58.03;30.40;;;9.00;85.20;;;;;;5091387;28;20908;-80
2021/11/24 08:15:51;;;;;;;53.45;29.42;;;9.00;84.90;;;;;;5098341;28;20179;-81
2021/11/24 08:18:17;;;;;;;46.55;25.80;;;9.10;84.90;;;;;;5117377;28;20190;-81
2021/11/24 08:20:43;;;;;;;58.70;29.53;;;9.10;84.80;;;;;;5091424;28;20302;-80
2021/11/24 08:23:09;;;;;;;51.88;28.98;;;9.10;84.80;;;;;;5084283;28;20442;-81
2021/11/24 08:25:35;;;;;;;47.92;26.60;;;9.20;84.40;;;;;;5090569;28;20255;-81
2021/11/24 08:28:01;;;;;;;47.85;29.52;;;9.40;84.20;;;;;;5113040;28;20586;-81
2021/11/24 08:30:28;;;;;;;46.87;26.17;;;9.30;83.80;;;;;;5083867;28;20218;-82
2021/11/24 08:32:53;;;;;;;51.70;29.42;;;9.20;83.80;;;;;;5091425;28;20426;-82
2021/11/24 08:35:20;;;;;;;49.07;28.97;;;9.30;83.90;;;;;;5097261;28;20209;-82
2021/11/24 08:37:47;;;;;;;47.70;29.63;;;9.30;83.80;;;;;;5094873;28;20425;-80
2021/11/24 08:40:13;;;;;;;54.72;28.00;;;9.30;83.80;;;;;;5094138;28;20291;-82
2021/11/24 08:42:40;;;;;;;57.80;28.27;;;9.40;83.90;;;;;;5109924;28;20690;-81
2021/11/24 08:45:10;;;;;;;45.70;28.77;;;9.50;83.60;;;;;;5113712;28;20211;-81
2021/11/24 08:47:38;;;;;;;51.85;30.05;;;9.30;83.10;;;;;;5075952;28;20196;-81
2021/11/24 08:50:06;;;;;;;51.85;31.85;;;9.30;83.20;;;;;;5116408;28;20186;-81
2021/11/24 08:52:31;;;;;;;52.85;30.80;;;9.10;83.40;;;;;;5101330;28;20199;-81
2021/11/24 08:54:57;;;;;;;51.73;27.60;;;8.80;83.70;;;;;;5103498;28;20207;-81
2021/11/24 08:57:23;;;;;;;51.03;27.50;;;8.70;84.40;;;;;;5093978;28;20187;-81
2021/11/24 08:59:49;;;;;;;48.47;29.00;;;8.90;84.80;;;;;;5094907;28;20218;-81
2021/11/24 09:02:15;;;;;;;56.90;29.52;;;8.90;84.60;;;;;;5098859;28;20183;-80
2021/11/24 09:04:41;;;;;;;47.08;27.10;;;9.00;84.70;;;;;;5128489;28;20199;-80
2021/11/24 09:07:08;;;;;;;48.80;29.80;;;9.10;84.60;;;;;;5100478;28;20214;-80
2021/11/24 09:09:35;;;;;;;48.75;26.88;;;9.10;84.30;;;;;;5073368;28;20294;-80
2021/11/24 09:12:01;;;;;;;45.45;28.67;;;9.00;84.20;;;;;;5094885;28;20215;-80
2021/11/24 09:14:27;;;;;;;47.40;27.77;;;8.90;84.20;;;;;;5097096;28;20211;-81
2021/11/24 09:16:53;;;;;;;47.30;28.27;;;9.00;84.40;;;;;;5110712;28;20195;-80
2021/11/24 09:19:19;;;;;;;57.85;30.50;;;9.00;84.10;;;;;;5103865;28;20198;-80
2021/11/24 09:21:45;;;;;;;43.80;26.87;;;9.20;84.10;;;;;;5089645;28;20241;-81
2021/11/24 09:24:13;;;;;;;48.43;29.20;;;9.30;84.00;;;;;;5108792;28;20195;-80
2021/11/24 09:26:45;;;;;;;51.65;30.45;;;9.50;83.80;;;;;;5094925;28;20498;-80
2021/11/24 09:29:11;;;;;;;48.95;28.60;;;9.60;83.40;;;;;;5087088;28;20172;-81
2021/11/24 09:31:38;;;;;;;56.75;32.15;;;9.70;83.30;;;;;;5093539;28;20179;-81
2021/11/24 09:34:04;;;;;;;46.55;29.63;;;9.70;82.60;;;;;;5119745;28;20210;-81
2021/11/24 09:36:29;;;;;;;48.10;28.52;;;9.70;82.40;;;;;;5110064;28;20172;-81
2021/11/24 09:38:55;;;;;;;48.27;30.30;;;9.80;82.30;;;;;;5109284;28;20176;-82
2021/11/24 09:41:25;;;;;;;50.00;30.80;;;10.00;82.30;;;;;;5088581;28;20635;-82
2021/11/24 09:43:54;;;;;;;53.03;29.67;;;10.10;81.90;;;;;;5091455;28;20187;-82
2021/11/24 09:46:21;;;;;;;52.95;29.60;;;10.20;81.30;;;;;;5107763;28;20175;-81
2021/11/24 09:48:50;;;;;;;57.55;31.75;;;10.10;80.70;;;;;;5098630;28;20175;-82
2021/11/24 09:51:19;;;;;;;53.03;33.63;;;10.10;80.40;;;;;;5103083;28;20180;-82
2021/11/24 09:53:46;;;;;;;50.25;31.15;;;9.70;80.00;;;;;;5097122;28;20199;-81
2021/11/24 09:56:13;;;;;;;53.28;29.45;;;9.70;80.70;;;;;;5104248;28;20179;-82
2021/11/24 09:58:39;;;;;;;55.67;31.33;;;9.90;81.00;;;;;;5097452;28;20260;-81
2021/11/24 10:01:05;;;;;;;46.63;29.73;;;9.90;81.10;;;;;;5102692;28;20211;-82
2021/11/24 10:03:31;;;;;;;53.30;34.27;;;10.20;80.80;;;;;;5096506;28;20191;-82
2021/11/24 10:05:57;;;;;;;55.17;32.92;;;10.20;80.00;;;;;;5104183;28;20420;-81
2021/11/24 10:08:24;;;;;;;46.65;30.30;;;10.20;79.60;;;;;;5096927;28;20191;-82
2021/11/24 10:10:50;;;;;;;55.50;31.48;;;10.30;79.60;;;;;;5123858;28;20175;-81
2021/11/24 10:13:16;;;;;;;50.08;29.90;;;10.20;79.40;;;;;;5087281;28;20191;-82
2021/11/24 10:15:48;;;;;;;50.50;28.57;;;10.30;79.50;;;;;;5095811;28;20176;-82
2021/11/24 10:18:21;;;;;;;42.67;27.88;;;10.30;79.60;;;;;;5080172;28;20199;-82
2021/11/24 10:20:57;;;;;;;44.58;28.63;;;10.40;79.40;;;;;;5125144;28;20199;-81
2021/11/24 10:23:33;;;;;;;58.25;34.17;;;10.50;79.20;;;;;;5100848;28;20195;-82
2021/11/24 10:26:15;;;;;;;49.60;29.02;;;10.60;78.80;;;;;;5079875;28;20183;-82
2021/11/24 10:28:58;;;;;;;56.83;31.20;;;10.50;78.40;;;;;;5109739;28;20173;-81
2021/11/24 10:31:27;;;;;;;53.15;29.70;;;10.30;78.20;;;;;;5105491;28;20234;-82
2021/11/24 10:33:53;;;;;;;55.70;31.67;;;10.00;78.60;;;;;;5108570;28;20255;-81
2021/11/24 10:36:19;;;;;;;55.28;32.13;;;10.10;79.40;;;;;;5102490;28;20207;-81
2021/11/24 10:38:47;;;;;;;56.58;33.63;;;10.30;79.80;;;;;;5100943;28;20168;-81
2021/11/24 10:41:29;;;;;;;60.17;32.45;;;10.10;79.30;;;;;;5077965;28;20215;-81
2021/11/24 10:43:55;;;;;;;66.72;34.13;;;10.00;79.20;;;;;;5100451;28;20577;-81
2021/11/24 10:46:26;;;;;;;71.40;33.70;;;9.90;79.90;;;;;;5098083;28;20180;-80
2021/11/24 10:49:09;;;;;;;58.22;33.38;;;9.80;80.30;;;;;;5097052;28;20501;-81
2021/11/24 10:51:43;;;;;;;57.70;32.45;;;9.40;80.80;;;;;;5104360;28;20175;-81
2021/11/24 10:54:13;;;;;;;58.45;32.80;;;9.40;81.90;;;;;;5114837;28;20200;-81
2021/11/24 10:57:14;;;;;;;58.92;34.45;;;9.70;82.20;;;;;;5096451;28;20225;-82
2021/11/24 10:59:44;;;;;;;55.75;30.80;;;9.70;81.60;;;;;;5041459;28;20197;-81
2021/11/24 11:02:23;;;;;;;53.70;30.88;;;9.90;81.20;;;;;;5101942;28;20210;-81
2021/11/24 11:04:59;;;;;;;54.88;31.10;;;10.10;80.70;;;;;;5107498;28;20202;-81
2021/11/24 11:07:27;;;;;;;52.63;31.42;;;10.20;80.10;;;;;;5122464;28;20175;-80
2021/11/24 11:10:05;;;;;;;54.63;29.75;;;10.30;79.90;;;;;;5091367;28;20175;-81
2021/11/24 11:12:32;;;;;;;54.05;30.33;;;10.30;79.80;;;;;;5092600;28;20176;-81
2021/11/24 11:15:40;;;;;;;52.83;32.33;;;10.50;79.30;;;;;;5092496;28;20223;-81
2021/11/24 11:18:28;;;;;;;51.10;29.80;;;10.50;78.80;;;;;;5010680;28;20189;-80
2021/11/24 11:21:05;;;;;;;54.95;30.25;;;10.50;78.80;;;;;;5087315;28;20210;-81
2021/11/24 11:23:38;;;;;;;54.22;29.08;;;10.60;78.60;;;;;;5084999;28;20183;-82
2021/11/24 11:26:09;;;;;;;58.97;31.48;;;10.10;78.50;;;;;;5106565;28;20180;-81
2021/11/24 11:28:37;;;;;;;52.20;29.70;;;10.10;79.40;;;;;;5060874;28;20203;-81
2021/11/24 11:31:08;;;;;;;49.03;28.67;;;10.10;79.40;;;;;;5095979;28;20191;-81
2021/11/24 11:33:40;;;;;;;49.40;28.95;;;10.30;79.60;;;;;;5094972;28;20168;-82
2021/11/24 11:36:11;;;;;;;55.40;32.47;;;10.30;79.60;;;;;;5095370;28;20263;-82
2021/11/24 11:38:43;;;;;;;44.42;28.75;;;10.50;79.30;;;;;;5095397;28;20177;-82
2021/11/24 11:41:09;;;;;;;49.85;27.80;;;10.60;78.70;;;;;;5097460;28;20670;-82
2021/11/24 11:43:37;;;;;;;49.13;29.05;;;10.30;78.20;;;;;;5122896;28;20172;-82
2021/11/24 11:46:19;;;;;;;45.45;28.30;;;10.60;78.60;;;;;;5115468;28;20199;-82
2021/11/24 11:48:45;;;;;;;43.58;27.20;;;10.60;78.10;;;;;;5105876;28;20566;-81
2021/11/24 11:51:13;;;;;;;49.65;28.35;;;10.50;77.70;;;;;;5119066;28;20202;-82
2021/11/24 11:53:43;;;;;;;45.78;29.75;;;10.60;77.30;;;;;;5104762;28;20638;-82
2021/11/24 11:56:24;;;;;;;50.45;29.67;;;10.50;77.30;;;;;;5098423;28;20218;-82
2021/11/24 11:58:59;;;;;;;52.25;28.15;;;10.60;77.20;;;;;;5104267;28;20243;-81
2021/11/24 12:01:54;;;;;;;46.63;26.70;;;10.40;77.00;;;;;;5112724;28;20643;-82
2021/11/24 12:04:28;;;;;;;52.63;27.90;;;10.50;77.30;;;;;;5098079;28;20199;-82
2021/11/24 12:06:54;;;;;;;51.10;29.63;;;10.50;77.50;;;;;;5108023;28;20315;-82
2021/11/24 12:09:26;;;;;;;46.50;29.30;;;10.40;77.40;;;;;;5092594;28;20251;-82
2021/11/24 12:12:01;;;;;;;65.03;31.25;;;10.50;77.70;;;;;;5118069;28;20418;-83
2021/11/24 12:14:42;;;;;;;51.22;29.60;;;10.50;77.80;;;;;;5078869;28;20215;-82
2021/11/24 12:17:36;;;;;;;54.15;28.70;;;10.50;77.70;;;;;;5078330;28;20274;-83
2021/11/24 12:20:14;;;;;;;48.70;29.35;;;10.40;78.00;;;;;;5075135;28;20211;-83
2021/11/24 12:22:55;;;;;;;49.63;27.85;;;10.20;77.70;;;;;;5092200;28;20183;-82
2021/11/24 12:25:25;;;;;;;43.10;26.17;;;10.40;78.00;;;;;;5095928;28;20255;-83
2021/11/24 12:27:54;;;;;;;59.17;28.98;;;10.30;77.80;;;;;;5110749;28;20179;-82
2021/11/24 12:33:16;;;;;;;51.20;30.10;;;10.50;77.70;;;;;;5106779;28;20176;-82
2021/11/24 12:35:53;;;;;;;47.10;28.92;;;10.40;77.60;;;;;;5097394;28;20175;-82